Time;durP1;ratioP1;P1;durP2;ratioP2;P2;SDS_P1;SDS_P2;PMS_P1;PMS_P2;Temp;Humidity;BMP_temperature;BMP_pressure;BME280_temperature;BME280_humidity;BME280_pressure;Samples;Min_cycle;Max_cycle;Signal;HPM_P1;HPM_P2
2023/12/20 00:30:18;;;;;;;1.60;1.20;;;8.00;98.20;;;;;;4991861;28;20490;-83
2023/12/20 01:00:11;;;;;;;1.63;1.20;;;7.70;98.20;;;;;;4993615;28;20463;-84
2023/12/20 01:02:40;;;;;;;1.60;1.20;;;7.70;98.20;;;;;;4995812;28;20519;-84
2023/12/20 01:05:09;;;;;;;1.60;1.20;;;7.60;98.20;;;;;;5000882;28;20463;-84
2023/12/20 01:07:37;;;;;;;1.70;1.30;;;7.60;98.20;;;;;;4996562;28;20492;-83
2023/12/20 01:10:07;;;;;;;1.63;1.30;;;7.60;98.20;;;;;;5009679;28;20491;-84
2023/12/20 01:12:34;;;;;;;1.70;1.60;;;7.60;98.20;;;;;;4996894;28;20894;-84
2023/12/20 01:15:01;;;;;;;1.60;1.30;;;7.60;98.20;;;;;;5007483;28;20460;-84
2023/12/20 01:17:30;;;;;;;1.60;1.20;;;7.60;98.20;;;;;;4994480;28;20484;-84
2023/12/20 01:19:57;;;;;;;1.67;1.30;;;7.60;98.20;;;;;;5008154;28;21033;-84
2023/12/20 01:22:24;;;;;;;1.60;1.20;;;7.60;98.20;;;;;;4986124;28;20549;-84
2023/12/20 01:24:52;;;;;;;1.80;1.30;;;7.60;98.20;;;;;;5008316;28;20866;-84
2023/12/20 01:27:19;;;;;;;1.60;1.20;;;7.50;98.20;;;;;;4991862;28;20513;-84
2023/12/20 01:29:49;;;;;;;1.90;1.70;;;7.50;98.20;;;;;;5005729;28;20471;-83
2023/12/20 01:32:16;;;;;;;1.67;1.30;;;7.40;98.20;;;;;;5002566;28;20496;-84
2023/12/20 01:34:41;;;;;;;1.60;1.20;;;7.40;98.20;;;;;;5003691;28;20472;-85
2023/12/20 01:37:08;;;;;;;1.67;1.20;;;7.30;98.20;;;;;;4990385;28;20481;-85
2023/12/20 01:39:38;;;;;;;1.60;1.23;;;7.30;98.20;;;;;;5012462;28;20240;-84
2023/12/20 01:42:06;;;;;;;1.63;1.30;;;7.30;98.20;;;;;;5004506;28;20487;-84
2023/12/20 01:44:33;;;;;;;1.60;1.20;;;7.30;98.20;;;;;;5014906;28;20543;-84
2023/12/20 01:47:00;;;;;;;1.60;1.20;;;7.30;98.20;;;;;;4998556;28;20480;-84
2023/12/20 01:49:27;;;;;;;1.60;1.30;;;7.20;98.20;;;;;;5011144;28;20460;-83
2023/12/20 01:51:55;;;;;;;1.63;1.30;;;7.20;98.20;;;;;;4996847;28;20479;-84
2023/12/20 01:54:22;;;;;;;1.60;1.20;;;7.20;98.20;;;;;;5010340;28;21063;-83
2023/12/20 01:56:50;;;;;;;1.67;1.30;;;7.20;98.20;;;;;;4997248;28;21116;-84
2023/12/20 01:59:20;;;;;;;2.97;2.67;;;7.20;98.20;;;;;;5006522;28;20455;-84
2023/12/20 02:01:47;;;;;;;1.60;1.20;;;7.10;98.20;;;;;;4991693;28;20565;-84
2023/12/20 02:04:14;;;;;;;1.63;1.30;;;7.10;98.20;;;;;;4997803;28;20476;-85
2023/12/20 02:06:41;;;;;;;1.70;1.30;;;7.00;98.20;;;;;;4996810;28;20897;-84
2023/12/20 02:09:08;;;;;;;1.60;1.30;;;7.00;98.20;;;;;;5010323;28;20532;-84
2023/12/20 02:11:36;;;;;;;1.70;1.40;;;6.90;98.20;;;;;;4996712;28;20486;-84
2023/12/20 02:14:03;;;;;;;1.60;1.30;;;6.80;98.20;;;;;;5008795;28;20636;-84
2023/12/20 02:16:32;;;;;;;1.63;1.30;;;6.80;98.20;;;;;;4994297;28;20485;-84
2023/12/20 02:18:59;;;;;;;1.60;1.20;;;6.80;98.20;;;;;;5001430;28;20468;-83
2023/12/20 02:21:34;;;;;;;1.60;1.20;;;6.70;98.20;;;;;;4994635;28;20518;-84
2023/12/20 02:24:01;;;;;;;1.63;1.30;;;6.70;98.20;;;;;;4995831;28;20463;-84
2023/12/20 02:26:28;;;;;;;1.60;1.30;;;6.70;98.20;;;;;;4998591;28;20480;-84
2023/12/20 02:28:56;;;;;;;1.60;1.30;;;6.70;98.20;;;;;;5011576;28;20469;-84
2023/12/20 02:31:24;;;;;;;1.60;1.20;;;6.60;98.20;;;;;;4998128;28;20508;-85
2023/12/20 02:33:50;;;;;;;1.70;1.50;;;6.60;98.20;;;;;;5014868;28;20599;-84
2023/12/20 02:36:17;;;;;;;1.60;1.30;;;6.50;98.20;;;;;;4998659;28;20495;-84
2023/12/20 02:38:46;;;;;;;1.70;1.40;;;6.50;98.20;;;;;;4995965;28;20543;-84
2023/12/20 02:41:15;;;;;;;1.70;1.60;;;6.50;98.20;;;;;;5001868;28;20579;-85
2023/12/20 02:43:42;;;;;;;1.60;1.20;;;6.50;98.20;;;;;;5012848;28;20464;-85
2023/12/20 02:46:09;;;;;;;1.67;1.30;;;6.50;98.20;;;;;;5003506;28;20560;-85
2023/12/20 02:48:36;;;;;;;1.70;1.30;;;6.50;98.20;;;;;;5008680;28;20559;-85
2023/12/20 02:51:06;;;;;;;1.63;1.30;;;6.50;98.20;;;;;;5005017;28;20554;-84
2023/12/20 02:53:33;;;;;;;1.63;1.23;;;6.50;98.20;;;;;;5011932;28;20477;-84
2023/12/20 02:56:01;;;;;;;1.60;1.23;;;6.50;98.20;;;;;;5006731;28;21173;-84
2023/12/20 02:58:28;;;;;;;1.70;1.40;;;6.50;98.20;;;;;;5014761;28;20495;-84
2023/12/20 03:00:55;;;;;;;1.67;1.30;;;6.50;98.20;;;;;;5008187;28;20872;-84
2023/12/20 03:03:22;;;;;;;2.60;2.40;;;6.50;98.20;;;;;;5006307;28;20456;-85
2023/12/20 03:05:49;;;;;;;1.70;1.50;;;6.50;98.20;;;;;;5009699;28;20466;-85
2023/12/20 03:08:15;;;;;;;1.67;1.30;;;6.50;98.20;;;;;;5002569;28;20460;-84
2023/12/20 03:10:42;;;;;;;1.70;1.40;;;6.50;98.20;;;;;;5018371;28;20470;-84
2023/12/20 03:13:11;;;;;;;1.60;1.20;;;6.50;98.20;;;;;;4985952;28;20499;-85
2023/12/20 03:15:38;;;;;;;1.60;1.30;;;6.50;98.20;;;;;;5019453;28;20468;-85
2023/12/20 03:18:05;;;;;;;1.60;1.30;;;6.50;98.20;;;;;;4991328;28;20485;-84
2023/12/20 03:20:33;;;;;;;1.67;1.30;;;6.50;98.20;;;;;;5018443;28;20483;-84
2023/12/20 03:23:01;;;;;;;1.60;1.20;;;6.50;98.20;;;;;;4993494;28;20472;-84
2023/12/20 03:25:28;;;;;;;1.60;1.30;;;6.50;98.20;;;;;;5020100;28;20460;-84
2023/12/20 03:28:01;;;;;;;1.60;1.30;;;6.40;98.20;;;;;;5003429;28;20489;-83
2023/12/20 03:30:29;;;;;;;1.67;1.30;;;6.40;98.20;;;;;;5017678;28;20527;-84
2023/12/20 03:32:56;;;;;;;1.70;1.30;;;6.40;98.20;;;;;;4992373;28;20583;-84
2023/12/20 03:35:22;;;;;;;1.63;1.30;;;6.30;98.20;;;;;;5012645;28;20550;-84
2023/12/20 03:38:27;;;;;;;1.60;1.30;;;6.30;98.20;;;;;;4984925;28;20500;-84
2023/12/20 03:40:54;;;;;;;1.63;1.30;;;6.30;98.20;;;;;;4989802;28;20498;-84
2023/12/20 03:43:27;;;;;;;1.63;1.30;;;6.30;98.20;;;;;;5011567;28;20503;-84
2023/12/20 03:45:55;;;;;;;1.60;1.30;;;6.30;98.20;;;;;;5005744;28;20522;-84
2023/12/20 03:48:22;;;;;;;1.63;1.30;;;6.30;98.20;;;;;;4987294;28;20472;-84
2023/12/20 03:50:49;;;;;;;1.63;1.30;;;6.20;98.20;;;;;;5001686;28;20575;-85
2023/12/20 03:53:16;;;;;;;1.60;1.20;;;6.20;98.20;;;;;;4993458;28;20768;-84
2023/12/20 03:55:43;;;;;;;1.67;1.30;;;6.20;98.20;;;;;;5014855;28;20458;-85
2023/12/20 03:58:09;;;;;;;1.60;1.30;;;6.20;98.20;;;;;;5004318;28;20507;-84
2023/12/20 04:00:36;;;;;;;1.60;1.30;;;6.20;98.20;;;;;;5013817;28;20449;-85
2023/12/20 04:03:05;;;;;;;1.60;1.23;;;6.10;98.20;;;;;;4994092;28;20527;-84
2023/12/20 04:05:32;;;;;;;1.63;1.27;;;6.20;98.20;;;;;;5017319;28;20472;-85
2023/12/20 04:08:03;;;;;;;1.60;1.30;;;6.20;98.20;;;;;;4999801;28;20822;-84
2023/12/20 04:10:30;;;;;;;1.60;1.20;;;6.20;98.20;;;;;;5015241;28;20472;-85
2023/12/20 04:12:56;;;;;;;1.60;1.30;;;6.20;98.20;;;;;;4999047;28;20476;-84
2023/12/20 04:15:23;;;;;;;1.60;1.20;;;6.20;98.20;;;;;;5015578;28;20966;-85
2023/12/20 04:17:50;;;;;;;1.63;1.30;;;6.20;98.20;;;;;;5001232;28;21144;-85
2023/12/20 04:20:18;;;;;;;1.60;1.30;;;6.20;98.20;;;;;;5018275;28;20492;-84
2023/12/20 04:22:45;;;;;;;1.60;1.30;;;6.30;98.20;;;;;;4988335;28;20486;-84
2023/12/20 04:25:13;;;;;;;1.60;1.30;;;6.30;98.20;;;;;;5013699;28;20461;-84
2023/12/20 04:27:40;;;;;;;1.63;1.30;;;6.30;98.20;;;;;;5000472;28;20535;-85
2023/12/20 04:30:09;;;;;;;1.60;1.30;;;6.30;98.20;;;;;;5015295;28;20464;-84
2023/12/20 04:32:35;;;;;;;1.67;1.30;;;6.30;98.20;;;;;;4990133;28;20497;-85
2023/12/20 04:35:02;;;;;;;1.63;1.30;;;6.30;98.20;;;;;;5012744;28;20480;-84
2023/12/20 04:37:30;;;;;;;1.60;1.23;;;6.30;98.20;;;;;;5004353;28;20484;-85
2023/12/20 04:39:57;;;;;;;1.60;1.30;;;6.30;98.20;;;;;;5012405;28;20479;-84
2023/12/20 04:42:24;;;;;;;1.60;1.30;;;6.30;98.20;;;;;;5002616;28;20559;-85
2023/12/20 04:44:51;;;;;;;1.67;1.30;;;6.20;98.20;;;;;;5013962;28;20555;-85
2023/12/20 04:47:18;;;;;;;1.60;1.30;;;6.20;98.20;;;;;;5004376;28;20534;-85
2023/12/20 04:49:45;;;;;;;1.63;1.30;;;6.20;98.20;;;;;;5014291;28;20515;-84
2023/12/20 04:52:12;;;;;;;1.70;1.30;;;6.20;98.20;;;;;;5002656;28;20480;-84
2023/12/20 04:54:40;;;;;;;1.70;1.40;;;6.20;98.20;;;;;;5008656;28;20538;-87
2023/12/20 04:57:07;;;;;;;1.63;1.30;;;6.20;98.20;;;;;;4999802;28;20500;-85
2023/12/20 04:59:34;;;;;;;1.60;1.20;;;6.20;98.20;;;;;;5008848;28;20490;-86
2023/12/20 05:02:04;;;;;;;1.67;1.30;;;6.20;98.20;;;;;;5000271;28;20484;-86
2023/12/20 05:04:31;;;;;;;1.60;1.30;;;6.20;98.20;;;;;;5015011;28;20464;-86
2023/12/20 05:06:58;;;;;;;1.60;1.30;;;6.20;98.20;;;;;;5000040;28;20476;-85
2023/12/20 05:09:25;;;;;;;1.60;1.30;;;6.10;98.20;;;;;;5011674;28;20491;-86
2023/12/20 05:11:56;;;;;;;1.60;1.30;;;6.10;98.20;;;;;;4995653;28;20480;-86
2023/12/20 05:14:25;;;;;;;1.63;1.30;;;6.10;98.20;;;;;;5005733;28;20490;-87
2023/12/20 05:16:53;;;;;;;1.60;1.20;;;6.10;98.20;;;;;;5007452;28;20869;-87
2023/12/20 05:22:43;;;;;;;1.63;1.30;;;6.00;98.20;;;;;;4999291;28;20467;-87
2023/12/20 05:25:10;;;;;;;1.70;1.40;;;6.00;98.20;;;;;;5007551;28;20527;-87
2023/12/20 05:27:39;;;;;;;1.67;1.30;;;6.00;98.20;;;;;;5006351;28;21048;-86
2023/12/20 05:30:20;;;;;;;1.60;1.30;;;6.00;98.20;;;;;;5008012;28;20465;-86
2023/12/20 05:35:43;;;;;;;1.60;1.30;;;6.00;98.20;;;;;;5007410;28;20498;-86
2023/12/20 05:38:10;;;;;;;1.60;1.30;;;6.00;98.20;;;;;;5005804;28;21253;-86
2023/12/20 05:40:37;;;;;;;1.67;1.30;;;6.00;98.20;;;;;;5009354;28;20481;-86
2023/12/20 05:43:05;;;;;;;1.60;1.30;;;6.00;98.20;;;;;;5001356;28;20542;-86
2023/12/20 05:45:32;;;;;;;1.60;1.30;;;6.00;98.20;;;;;;5016510;28;20464;-85
2023/12/20 05:59:15;;;;;;;1.60;1.30;;;6.20;98.20;;;;;;4957845;28;20479;-86
2023/12/20 06:01:53;;;;;;;1.60;1.23;;;6.20;98.20;;;;;;4956003;28;20502;-86
2023/12/20 06:04:23;;;;;;;1.60;1.30;;;6.20;98.20;;;;;;4952490;28;20730;-86
2023/12/20 06:07:05;;;;;;;1.60;1.20;;;6.20;98.20;;;;;;4945981;28;20485;-85
2023/12/20 06:09:37;;;;;;;1.60;1.30;;;6.20;98.20;;;;;;4956740;28;20617;-85
2023/12/20 06:12:10;;;;;;;1.60;1.27;;;6.30;98.20;;;;;;4945478;28;20561;-84
2023/12/20 06:14:41;;;;;;;1.70;1.40;;;6.30;98.20;;;;;;4961052;28;20490;-85
2023/12/20 06:17:08;;;;;;;1.60;1.30;;;6.30;98.20;;;;;;4956026;28;20557;-84
2023/12/20 06:19:35;;;;;;;1.60;1.27;;;6.30;98.20;;;;;;4956708;28;20522;-85
2023/12/20 06:22:03;;;;;;;1.60;1.27;;;6.30;98.20;;;;;;4956422;28;20562;-84
2023/12/20 06:24:33;;;;;;;1.60;1.20;;;6.40;98.20;;;;;;4963220;28;20498;-84
2023/12/20 06:27:04;;;;;;;1.60;1.40;;;6.40;98.20;;;;;;4954856;28;20542;-85
2023/12/20 06:29:31;;;;;;;1.60;1.30;;;6.40;98.20;;;;;;4965181;28;20470;-84
2023/12/20 06:32:00;;;;;;;1.70;1.40;;;6.40;98.20;;;;;;4951144;28;20504;-85
2023/12/20 06:34:27;;;;;;;1.70;1.30;;;6.40;98.20;;;;;;4958894;28;20770;-84
2023/12/20 06:40:17;;;;;;;1.63;1.30;;;6.50;98.20;;;;;;4874040;29;20915;-84
2023/12/20 06:42:45;;;;;;;1.67;1.33;;;6.50;98.20;;;;;;4955596;28;20510;-85
2023/12/20 06:45:15;;;;;;;1.63;1.30;;;6.50;98.20;;;;;;4951501;28;20566;-85
2023/12/20 06:48:31;;;;;;;1.60;1.27;;;6.50;98.20;;;;;;4954568;28;20478;-84
2023/12/20 06:51:01;;;;;;;1.60;1.27;;;6.50;98.20;;;;;;4880999;29;20486;-86
2023/12/20 06:53:35;;;;;;;1.63;1.20;;;6.60;98.20;;;;;;4944323;28;20470;-84
2023/12/20 06:56:02;;;;;;;1.60;1.23;;;6.60;98.20;;;;;;4942682;28;20467;-85
2023/12/20 06:58:30;;;;;;;1.63;1.30;;;6.60;98.20;;;;;;4973988;28;20514;-87
2023/12/20 07:04:00;;;;;;;1.60;1.30;;;6.60;98.20;;;;;;4952849;28;20870;-86
2023/12/20 07:07:04;;;;;;;1.60;1.30;;;6.60;98.20;;;;;;4962606;28;20486;-86
2023/12/20 07:09:42;;;;;;;1.60;1.30;;;6.60;98.20;;;;;;4974548;28;20494;-86
2023/12/20 07:12:12;;;;;;;1.60;1.30;;;6.60;98.20;;;;;;4968025;28;20481;-86
2023/12/20 07:14:40;;;;;;;1.67;1.30;;;6.60;98.20;;;;;;4973880;28;20576;-86
2023/12/20 07:17:11;;;;;;;1.60;1.20;;;6.70;98.20;;;;;;4967290;28;20491;-85
2023/12/20 07:20:10;;;;;;;2.10;1.50;;;6.70;98.20;;;;;;4973940;28;20772;-85
2023/12/20 07:22:40;;;;;;;1.60;1.30;;;6.70;98.20;;;;;;4924876;28;20597;-84
2023/12/20 07:25:08;;;;;;;1.60;1.20;;;6.70;98.20;;;;;;4970873;28;20986;-86
2023/12/20 07:27:40;;;;;;;1.70;1.60;;;6.70;98.20;;;;;;4965983;28;20573;-84
2023/12/20 07:30:17;;;;;;;1.93;1.73;;;6.70;98.20;;;;;;4970084;28;20462;-86
2023/12/20 07:32:44;;;;;;;1.63;1.20;;;6.70;98.20;;;;;;4963652;28;20485;-84
2023/12/20 07:35:25;;;;;;;1.60;1.20;;;6.70;98.20;;;;;;4965744;28;20577;-84
2023/12/20 07:37:53;;;;;;;1.63;1.30;;;6.70;98.20;;;;;;4973960;28;20710;-81
2023/12/20 07:40:20;;;;;;;1.60;1.30;;;6.70;98.20;;;;;;4972179;28;20453;-82
2023/12/20 07:42:47;;;;;;;1.70;1.40;;;6.70;98.20;;;;;;4968314;28;20933;-81
2023/12/20 07:45:14;;;;;;;1.67;1.20;;;6.70;98.20;;;;;;4978542;28;20531;-82
2023/12/20 07:47:41;;;;;;;1.60;1.23;;;6.70;98.20;;;;;;4972446;28;20541;-81
2023/12/20 07:50:08;;;;;;;1.63;1.23;;;6.70;98.20;;;;;;4970035;28;20490;-83
2023/12/20 07:52:35;;;;;;;1.63;1.23;;;6.70;98.20;;;;;;4970937;28;21011;-80
2023/12/20 07:55:04;;;;;;;1.60;1.20;;;6.70;98.20;;;;;;4974364;28;20523;-81
2023/12/20 07:57:31;;;;;;;1.63;1.30;;;6.80;98.20;;;;;;4970899;28;20492;-81
2023/12/20 08:00:01;;;;;;;1.60;1.23;;;6.70;98.20;;;;;;4975598;28;20476;-81
2023/12/20 08:02:28;;;;;;;1.63;1.20;;;6.80;98.20;;;;;;4967463;28;20484;-80
2023/12/20 08:04:55;;;;;;;1.60;1.30;;;6.80;98.20;;;;;;4967546;28;20509;-80
2023/12/20 08:07:30;;;;;;;1.63;1.30;;;6.70;98.20;;;;;;4980058;28;20476;-80
2023/12/20 08:10:07;;;;;;;1.63;1.20;;;6.70;98.20;;;;;;4979801;28;20472;-80
2023/12/20 08:12:39;;;;;;;1.90;1.70;;;6.80;98.20;;;;;;4976176;28;20499;-80
2023/12/20 08:15:10;;;;;;;1.63;1.30;;;6.80;98.20;;;;;;4973860;28;20481;-80
2023/12/20 08:17:37;;;;;;;1.70;1.40;;;6.80;98.20;;;;;;4979414;28;20490;-80
2023/12/20 08:20:05;;;;;;;1.67;1.30;;;6.80;98.20;;;;;;4973643;28;20466;-79
2023/12/20 08:22:35;;;;;;;1.60;1.10;;;6.80;98.20;;;;;;4959602;28;20566;-80
2023/12/20 08:25:04;;;;;;;1.63;1.30;;;6.80;98.20;;;;;;4975148;28;20450;-80
2023/12/20 08:27:32;;;;;;;1.60;1.30;;;6.80;98.20;;;;;;4970614;28;20739;-80
2023/12/20 08:30:00;;;;;;;1.60;1.30;;;6.80;98.20;;;;;;4977620;28;20492;-80
2023/12/20 08:36:07;;;;;;;1.60;1.20;;;6.80;98.20;;;;;;4965717;28;20941;-81
2023/12/20 08:38:34;;;;;;;1.60;1.30;;;6.80;98.20;;;;;;4950897;28;20479;-82
2023/12/20 08:41:06;;;;;;;1.60;1.30;;;6.80;98.20;;;;;;4963691;28;20473;-80
2023/12/20 08:43:35;;;;;;;1.60;1.23;;;6.80;98.20;;;;;;4981547;28;20473;-82
2023/12/20 08:46:02;;;;;;;1.60;1.20;;;6.80;98.20;;;;;;4964125;28;20469;-81
2023/12/20 08:48:30;;;;;;;1.67;1.30;;;6.80;98.20;;;;;;4985468;28;20459;-81
2023/12/20 08:51:00;;;;;;;1.60;1.20;;;6.80;98.20;;;;;;4966920;28;20472;-81
2023/12/20 08:53:27;;;;;;;1.70;1.33;;;6.80;98.20;;;;;;4968535;28;20489;-81
2023/12/20 08:56:09;;;;;;;1.70;1.30;;;6.80;98.20;;;;;;4963267;28;20544;-81
2023/12/20 08:58:38;;;;;;;1.60;1.30;;;6.80;98.20;;;;;;4963689;28;20480;-81
2023/12/20 09:01:30;;;;;;;1.67;1.30;;;6.90;98.20;;;;;;4959347;28;20509;-81
2023/12/20 09:03:57;;;;;;;1.70;1.30;;;6.90;98.20;;;;;;4980381;28;20473;-81
2023/12/20 09:06:25;;;;;;;1.60;1.20;;;6.90;98.20;;;;;;4960629;28;20470;-81
2023/12/20 09:08:52;;;;;;;1.60;1.20;;;6.90;98.20;;;;;;4966764;28;20909;-81
2023/12/20 09:11:19;;;;;;;1.70;1.40;;;6.90;98.20;;;;;;4958595;28;20481;-81
2023/12/20 09:13:47;;;;;;;1.67;1.27;;;7.00;98.20;;;;;;4967745;28;20505;-81
2023/12/20 09:16:15;;;;;;;1.60;1.20;;;7.00;98.20;;;;;;4956535;28;20490;-81
2023/12/20 09:18:43;;;;;;;1.63;1.20;;;7.00;98.20;;;;;;4973147;28;20621;-81
2023/12/20 09:21:10;;;;;;;1.67;1.37;;;7.00;98.20;;;;;;4958818;28;21119;-81
2023/12/20 09:23:37;;;;;;;1.60;1.27;;;7.00;98.20;;;;;;4966464;28;20812;-80
2023/12/20 09:26:04;;;;;;;1.60;1.23;;;7.00;98.20;;;;;;4961828;28;20461;-81
2023/12/20 09:28:36;;;;;;;1.60;1.20;;;7.00;98.20;;;;;;4984093;28;20462;-81
2023/12/20 09:31:06;;;;;;;1.60;1.20;;;7.00;98.20;;;;;;4967891;28;20508;-82
2023/12/20 09:33:37;;;;;;;1.60;1.20;;;7.10;98.20;;;;;;4975314;28;20454;-80
2023/12/20 09:36:04;;;;;;;1.67;1.20;;;7.10;98.20;;;;;;4959433;28;20501;-80
2023/12/20 09:38:31;;;;;;;1.60;1.20;;;7.10;98.20;;;;;;4986210;28;20482;-81
2023/12/20 09:40:58;;;;;;;1.70;1.30;;;7.10;98.20;;;;;;4962529;28;20458;-82
2023/12/20 09:43:28;;;;;;;1.60;1.20;;;7.10;98.20;;;;;;4964702;28;20462;-81
2023/12/20 09:45:56;;;;;;;1.60;1.20;;;7.10;98.20;;;;;;4966569;28;20461;-82
2023/12/20 09:48:34;;;;;;;1.60;1.20;;;7.10;98.20;;;;;;4983922;28;20474;-81
2023/12/20 09:51:01;;;;;;;1.60;1.20;;;7.10;98.20;;;;;;4966223;28;20946;-82
2023/12/20 09:53:40;;;;;;;1.60;1.20;;;7.10;98.20;;;;;;4988147;28;20485;-83
2023/12/20 09:56:17;;;;;;;1.60;1.20;;;7.10;98.20;;;;;;4964837;28;21144;-82
2023/12/20 09:58:45;;;;;;;1.60;1.20;;;7.20;98.20;;;;;;4971033;28;20469;-82
2023/12/20 10:01:11;;;;;;;1.60;1.30;;;7.20;98.20;;;;;;4962604;28;20553;-83
2023/12/20 10:03:42;;;;;;;1.60;1.27;;;7.20;98.20;;;;;;4965143;28;20484;-82
2023/12/20 10:06:12;;;;;;;1.67;1.30;;;7.20;98.20;;;;;;4962484;28;20476;-82
2023/12/20 10:08:42;;;;;;;1.60;1.20;;;7.20;98.20;;;;;;4972904;28;20515;-82
2023/12/20 10:11:10;;;;;;;3.87;3.50;;;7.20;98.20;;;;;;4964990;28;20484;-82
2023/12/20 10:13:40;;;;;;;1.60;1.20;;;7.30;98.20;;;;;;4981887;28;20564;-82
2023/12/20 10:16:08;;;;;;;1.63;1.20;;;7.30;98.20;;;;;;4960435;28;20470;-82
2023/12/20 10:18:35;;;;;;;1.60;1.20;;;7.30;98.20;;;;;;4981675;28;20466;-83
2023/12/20 10:21:06;;;;;;;1.60;1.20;;;7.30;98.20;;;;;;4959978;28;20488;-81
2023/12/20 10:23:33;;;;;;;1.63;1.20;;;7.30;98.20;;;;;;4976461;28;20609;-83
2023/12/20 10:26:01;;;;;;;1.60;1.20;;;7.30;98.20;;;;;;4965832;28;20517;-83
2023/12/20 10:28:34;;;;;;;1.60;1.20;;;7.30;98.20;;;;;;4978244;28;20938;-83
2023/12/20 10:31:01;;;;;;;1.60;1.30;;;7.40;98.20;;;;;;4962442;28;20477;-83
2023/12/20 10:33:46;;;;;;;1.60;1.20;;;7.40;98.20;;;;;;4979368;28;20466;-82
2023/12/20 10:36:47;;;;;;;1.60;1.20;;;7.40;98.20;;;;;;4958976;28;20492;-82
2023/12/20 10:39:16;;;;;;;1.60;1.20;;;7.40;98.20;;;;;;4977680;28;20461;-82
2023/12/20 10:41:43;;;;;;;1.60;1.20;;;7.40;98.20;;;;;;4968012;28;20503;-82
2023/12/20 10:44:13;;;;;;;1.63;1.20;;;7.40;98.20;;;;;;4978305;28;20466;-83
2023/12/20 10:46:47;;;;;;;1.60;1.20;;;7.40;98.20;;;;;;4964477;28;20493;-82
2023/12/20 10:49:15;;;;;;;1.60;1.20;;;7.40;98.20;;;;;;4977499;28;20462;-82
2023/12/20 10:51:48;;;;;;;1.70;1.30;;;7.40;98.20;;;;;;4966289;28;21111;-82
2023/12/20 10:54:19;;;;;;;1.67;1.47;;;7.40;98.20;;;;;;4983747;28;20597;-82
2023/12/20 10:56:47;;;;;;;1.60;1.20;;;7.40;98.20;;;;;;4967470;28;20564;-82
2023/12/20 10:59:22;;;;;;;1.60;1.20;;;7.40;98.20;;;;;;4979007;28;20472;-84
2023/12/20 11:01:57;;;;;;;1.60;1.20;;;7.40;98.20;;;;;;4966554;28;20596;-84
2023/12/20 11:04:32;;;;;;;1.60;1.30;;;7.40;98.20;;;;;;4984272;28;20463;-83
2023/12/20 11:07:09;;;;;;;1.60;1.20;;;7.50;98.20;;;;;;4963297;28;20796;-84
2023/12/20 11:09:41;;;;;;;1.70;1.40;;;7.50;98.20;;;;;;4971491;28;20568;-83
2023/12/20 11:12:25;;;;;;;1.60;1.20;;;7.50;98.20;;;;;;4972079;28;20575;-84
2023/12/20 11:14:57;;;;;;;1.67;1.40;;;7.60;98.20;;;;;;4975120;28;20466;-84
2023/12/20 11:17:25;;;;;;;1.60;1.20;;;7.60;98.20;;;;;;4962757;28;20478;-83
2023/12/20 11:20:12;;;;;;;1.60;1.20;;;7.60;98.20;;;;;;4972511;28;20935;-83
2023/12/20 11:22:52;;;;;;;1.63;1.30;;;7.70;98.20;;;;;;4974048;28;20481;-83
2023/12/20 11:25:22;;;;;;;1.60;1.20;;;7.70;98.20;;;;;;4973689;28;20480;-84
2023/12/20 11:28:10;;;;;;;1.60;1.20;;;7.70;98.20;;;;;;4966773;28;20529;-84
2023/12/20 11:30:47;;;;;;;1.63;1.20;;;7.70;98.20;;;;;;4975092;28;20468;-82
2023/12/20 11:33:15;;;;;;;1.60;1.20;;;7.70;98.20;;;;;;4949108;28;20485;-84
2023/12/20 11:35:43;;;;;;;1.70;1.20;;;7.70;98.20;;;;;;4974394;28;20579;-84
2023/12/20 12:02:45;;;;;;;1.60;1.20;;;7.60;98.20;;;;;;5612356;23;20507;-83
2023/12/20 12:09:20;;;;;;;1.63;1.20;;;7.50;98.20;;;;;;5011809;28;20541;-84
2023/12/20 12:22:52;;;;;;;1.60;1.20;;;7.50;98.20;;;;;;5256166;23;20519;-84
2023/12/20 12:25:36;;;;;;;1.60;1.27;;;7.60;98.20;;;;;;5013407;28;20472;-83
2023/12/20 12:28:09;;;;;;;1.60;1.20;;;7.60;98.20;;;;;;5015299;28;20474;-84
2023/12/20 12:31:07;;;;;;;1.60;1.30;;;7.60;98.20;;;;;;5014221;28;20460;-83
2023/12/20 12:37:24;;;;;;;1.60;1.20;;;7.60;98.20;;;;;;4936302;28;20498;-83
2023/12/20 12:40:46;;;;;;;1.60;1.20;;;7.60;98.20;;;;;;4881357;29;20470;-83
2023/12/20 12:47:31;;;;;;;1.60;1.20;;;7.60;98.20;;;;;;4828765;29;20501;-84
2023/12/20 13:09:09;;;;;;;1.60;1.20;;;7.80;98.20;;;;;;5659796;23;22125;-84
2023/12/20 13:11:36;;;;;;;1.60;1.20;;;7.80;98.20;;;;;;4973440;28;20794;-83
2023/12/20 13:14:04;;;;;;;1.60;1.20;;;7.90;98.20;;;;;;4984392;28;20496;-83
2023/12/20 13:16:32;;;;;;;1.60;1.20;;;7.90;98.20;;;;;;4977151;28;20825;-83
2023/12/20 13:18:59;;;;;;;1.60;1.20;;;7.90;98.20;;;;;;4989473;28;20476;-83
2023/12/20 13:21:27;;;;;;;1.60;1.20;;;8.00;98.20;;;;;;4976292;28;20500;-83
2023/12/20 13:23:54;;;;;;;1.60;1.20;;;8.10;98.20;;;;;;4989888;28;20493;-83
2023/12/20 13:26:22;;;;;;;1.60;1.20;;;8.10;98.20;;;;;;4975204;28;20495;-83
2023/12/20 13:28:50;;;;;;;1.60;1.30;;;8.10;98.20;;;;;;4984426;28;20477;-83
2023/12/20 13:31:21;;;;;;;1.70;1.30;;;8.10;98.20;;;;;;4978142;28;20547;-82
2023/12/20 13:33:48;;;;;;;1.60;1.10;;;8.00;98.20;;;;;;4988162;28;20615;-82
2023/12/20 13:36:15;;;;;;;1.83;1.63;;;8.00;98.20;;;;;;4976990;28;20489;-83
2023/12/20 13:38:47;;;;;;;1.60;1.17;;;8.00;98.20;;;;;;4984476;28;20528;-82
2023/12/20 13:41:14;;;;;;;1.60;1.20;;;8.00;98.20;;;;;;4973691;28;20540;-82
2023/12/20 13:43:42;;;;;;;1.60;1.17;;;8.00;98.20;;;;;;4986596;28;20516;-82
2023/12/20 13:46:09;;;;;;;1.60;1.20;;;7.90;98.20;;;;;;4974168;28;20489;-82
2023/12/20 13:48:37;;;;;;;1.70;1.30;;;7.90;98.20;;;;;;4982941;28;20473;-81
2023/12/20 13:51:05;;;;;;;1.60;1.20;;;7.90;98.20;;;;;;4980549;28;20595;-82
2023/12/20 13:53:33;;;;;;;1.60;1.20;;;7.90;98.20;;;;;;4986105;28;20478;-82
2023/12/20 13:56:12;;;;;;;1.67;1.20;;;7.90;98.20;;;;;;4973382;28;20496;-82
2023/12/20 13:58:40;;;;;;;1.60;1.20;;;7.90;98.20;;;;;;4985520;28;21051;-82
2023/12/20 14:01:10;;;;;;;1.70;1.27;;;7.90;98.20;;;;;;4976661;28;20489;-83
2023/12/20 14:03:37;;;;;;;1.60;1.20;;;7.90;98.20;;;;;;4983768;28;20476;-82
2023/12/20 14:06:05;;;;;;;1.60;1.20;;;7.90;98.20;;;;;;4978255;28;20512;-83
2023/12/20 14:08:32;;;;;;;1.60;1.20;;;7.90;98.20;;;;;;4985803;28;20476;-82
2023/12/20 14:11:01;;;;;;;1.60;1.20;;;7.90;98.20;;;;;;4977387;28;20539;-82
2023/12/20 14:13:28;;;;;;;1.60;1.10;;;7.90;98.20;;;;;;4981746;28;20487;-81
2023/12/20 14:15:55;;;;;;;1.60;1.20;;;7.90;98.20;;;;;;4974396;28;20473;-82
2023/12/20 14:18:23;;;;;;;1.60;1.23;;;7.90;98.20;;;;;;4984307;28;20465;-81
2023/12/20 14:20:51;;;;;;;1.60;1.20;;;7.90;98.20;;;;;;4977725;28;20480;-81
2023/12/20 14:23:18;;;;;;;1.60;1.20;;;7.90;98.20;;;;;;4985190;28;20461;-82
2023/12/20 14:25:45;;;;;;;1.67;1.30;;;7.90;98.20;;;;;;4986820;28;20976;-81
2023/12/20 14:28:14;;;;;;;1.60;1.20;;;7.90;98.20;;;;;;4957674;28;20473;-81
2023/12/20 14:30:41;;;;;;;1.60;1.20;;;7.90;98.20;;;;;;4986356;28;20472;-81
2023/12/20 14:33:08;;;;;;;1.63;1.20;;;7.90;98.20;;;;;;4973362;28;20483;-83
2023/12/20 14:35:36;;;;;;;1.60;1.20;;;7.90;98.20;;;;;;4985481;28;20492;-82
2023/12/20 14:38:04;;;;;;;1.60;1.13;;;7.90;98.20;;;;;;4973138;28;20492;-83
2023/12/20 14:40:31;;;;;;;1.60;1.20;;;7.90;98.20;;;;;;4984109;28;20498;-82
2023/12/20 14:42:58;;;;;;;1.60;1.20;;;8.00;98.20;;;;;;4970983;28;20987;-82
2023/12/20 14:45:25;;;;;;;1.60;1.20;;;8.00;98.20;;;;;;4985948;28;20640;-82
2023/12/20 14:47:52;;;;;;;1.60;1.30;;;8.00;98.20;;;;;;4981572;28;20564;-82
2023/12/20 14:50:19;;;;;;;1.60;1.20;;;8.00;98.20;;;;;;4988985;28;20488;-82
2023/12/20 14:52:55;;;;;;;1.60;1.20;;;8.00;98.20;;;;;;4979102;28;20496;-81
2023/12/20 15:01:40;;;;;;;1.60;1.20;;;8.00;98.20;;;;;;4923065;28;20575;-82
2023/12/20 15:04:07;;;;;;;1.63;1.20;;;8.00;98.20;;;;;;4992692;28;20915;-82
2023/12/20 15:06:34;;;;;;;1.60;1.20;;;8.10;98.20;;;;;;4982080;28;20485;-82
2023/12/20 15:09:06;;;;;;;1.60;1.20;;;8.00;98.20;;;;;;4992364;28;20466;-82
2023/12/20 15:11:33;;;;;;;1.60;1.20;;;8.00;98.20;;;;;;4980573;28;20481;-82
2023/12/20 15:14:03;;;;;;;1.60;1.20;;;8.10;98.20;;;;;;4991832;28;20948;-82
2023/12/20 15:16:33;;;;;;;1.63;1.30;;;8.10;98.20;;;;;;4979775;28;20491;-82
2023/12/20 15:19:00;;;;;;;1.60;1.20;;;8.00;98.20;;;;;;4989474;28;20477;-82
2023/12/20 15:21:32;;;;;;;1.60;1.10;;;8.00;98.20;;;;;;4978950;28;20493;-82
2023/12/20 15:24:05;;;;;;;1.63;1.30;;;8.10;98.20;;;;;;4987627;28;20468;-82
2023/12/20 15:26:34;;;;;;;1.60;1.20;;;8.10;98.20;;;;;;4981205;28;20487;-81
2023/12/20 15:29:01;;;;;;;1.60;1.30;;;8.10;98.20;;;;;;4990972;28;20853;-82
2023/12/20 15:31:29;;;;;;;1.63;1.23;;;8.10;98.20;;;;;;4978686;28;20535;-82
2023/12/20 15:33:56;;;;;;;1.60;1.20;;;8.00;98.20;;;;;;4989375;28;20488;-82
2023/12/20 15:36:22;;;;;;;1.70;1.30;;;8.10;98.20;;;;;;4977984;28;20531;-82
2023/12/20 15:38:49;;;;;;;1.60;1.17;;;8.10;98.20;;;;;;4989364;28;20465;-82
2023/12/20 15:41:19;;;;;;;1.60;1.20;;;8.10;98.20;;;;;;4982136;28;20545;-82
2023/12/20 15:43:47;;;;;;;1.67;1.30;;;8.10;98.20;;;;;;4995232;28;20520;-81
2023/12/20 15:46:15;;;;;;;1.67;1.20;;;8.10;98.20;;;;;;4977324;28;20493;-82
2023/12/20 15:48:42;;;;;;;1.60;1.20;;;8.10;98.20;;;;;;4983552;28;20837;-81